sensor_id;sensor_type;location;lat;lon;timestamp;P1;durP1;ratioP1;P2;durP2;ratioP2
16832;SDS011;8533;48.426;10.868;2023-07-16T00:02:19;8.27;;;5.80;;
16832;SDS011;8533;48.426;10.868;2023-07-16T00:04:44;7.53;;;5.93;;
16832;SDS011;8533;48.426;10.868;2023-07-16T00:07:09;9.43;;;6.13;;
16832;SDS011;8533;48.426;10.868;2023-07-16T00:09:35;8.80;;;6.03;;
16832;SDS011;8533;48.426;10.868;2023-07-16T00:12:01;11.37;;;6.03;;
16832;SDS011;8533;48.426;10.868;2023-07-16T00:14:26;11.30;;;5.97;;
16832;SDS011;8533;48.426;10.868;2023-07-16T00:16:52;9.07;;;5.63;;
16832;SDS011;8533;48.426;10.868;2023-07-16T00:19:17;11.63;;;6.03;;
16832;SDS011;8533;48.426;10.868;2023-07-16T00:21:42;14.37;;;6.17;;
16832;SDS011;8533;48.426;10.868;2023-07-16T00:24:07;7.87;;;5.50;;
16832;SDS011;8533;48.426;10.868;2023-07-16T00:26:33;11.60;;;5.80;;
16832;SDS011;8533;48.426;10.868;2023-07-16T00:28:58;7.63;;;5.63;;
16832;SDS011;8533;48.426;10.868;2023-07-16T00:31:23;10.13;;;5.70;;
16832;SDS011;8533;48.426;10.868;2023-07-16T00:33:49;9.47;;;5.30;;
16832;SDS011;8533;48.426;10.868;2023-07-16T00:36:14;7.87;;;5.50;;
16832;SDS011;8533;48.426;10.868;2023-07-16T00:38:39;13.33;;;5.20;;
16832;SDS011;8533;48.426;10.868;2023-07-16T00:41:07;9.20;;;5.80;;
16832;SDS011;8533;48.426;10.868;2023-07-16T00:43:33;11.50;;;5.10;;
16832;SDS011;8533;48.426;10.868;2023-07-16T00:45:58;8.93;;;4.93;;
16832;SDS011;8533;48.426;10.868;2023-07-16T00:48:24;7.47;;;5.30;;
16832;SDS011;8533;48.426;10.868;2023-07-16T00:50:50;6.10;;;5.27;;
16832;SDS011;8533;48.426;10.868;2023-07-16T00:53:19;6.00;;;4.80;;
16832;SDS011;8533;48.426;10.868;2023-07-16T00:55:44;7.63;;;5.03;;
16832;SDS011;8533;48.426;10.868;2023-07-16T00:58:10;8.50;;;4.83;;
16832;SDS011;8533;48.426;10.868;2023-07-16T01:00:36;8.40;;;4.70;;
16832;SDS011;8533;48.426;10.868;2023-07-16T01:03:03;10.87;;;5.97;;
16832;SDS011;8533;48.426;10.868;2023-07-16T01:05:31;14.10;;;5.53;;
16832;SDS011;8533;48.426;10.868;2023-07-16T01:08:02;10.73;;;5.50;;
16832;SDS011;8533;48.426;10.868;2023-07-16T01:10:31;14.07;;;5.67;;
16832;SDS011;8533;48.426;10.868;2023-07-16T01:12:57;13.63;;;6.40;;
16832;SDS011;8533;48.426;10.868;2023-07-16T01:15:23;13.13;;;5.70;;
16832;SDS011;8533;48.426;10.868;2023-07-16T01:17:49;11.07;;;6.10;;
16832;SDS011;8533;48.426;10.868;2023-07-16T01:20:14;17.47;;;6.20;;
16832;SDS011;8533;48.426;10.868;2023-07-16T01:22:45;12.00;;;6.27;;
16832;SDS011;8533;48.426;10.868;2023-07-16T01:25:27;12.03;;;6.00;;
16832;SDS011;8533;48.426;10.868;2023-07-16T01:28:27;11.60;;;5.83;;
16832;SDS011;8533;48.426;10.868;2023-07-16T01:30:57;8.57;;;6.07;;
16832;SDS011;8533;48.426;10.868;2023-07-16T01:33:23;15.10;;;6.60;;
16832;SDS011;8533;48.426;10.868;2023-07-16T01:35:50;9.43;;;6.47;;
16832;SDS011;8533;48.426;10.868;2023-07-16T01:38:16;19.50;;;6.27;;
16832;SDS011;8533;48.426;10.868;2023-07-16T01:40:43;10.63;;;6.40;;
16832;SDS011;8533;48.426;10.868;2023-07-16T01:43:09;11.10;;;6.97;;
16832;SDS011;8533;48.426;10.868;2023-07-16T01:45:34;9.87;;;6.87;;
16832;SDS011;8533;48.426;10.868;2023-07-16T01:50:54;13.10;;;6.63;;
16832;SDS011;8533;48.426;10.868;2023-07-16T01:53:20;12.13;;;6.80;;
16832;SDS011;8533;48.426;10.868;2023-07-16T01:55:45;10.83;;;6.63;;
16832;SDS011;8533;48.426;10.868;2023-07-16T01:58:10;12.40;;;7.30;;
16832;SDS011;8533;48.426;10.868;2023-07-16T02:00:36;13.83;;;6.83;;
16832;SDS011;8533;48.426;10.868;2023-07-16T02:03:02;12.17;;;6.90;;
16832;SDS011;8533;48.426;10.868;2023-07-16T02:05:28;9.20;;;6.37;;
16832;SDS011;8533;48.426;10.868;2023-07-16T02:07:53;6.17;;;4.90;;
16832;SDS011;8533;48.426;10.868;2023-07-16T02:10:18;5.97;;;4.23;;
16832;SDS011;8533;48.426;10.868;2023-07-16T02:12:44;4.77;;;3.60;;
16832;SDS011;8533;48.426;10.868;2023-07-16T02:15:09;4.87;;;3.67;;
16832;SDS011;8533;48.426;10.868;2023-07-16T02:17:35;5.17;;;3.53;;
16832;SDS011;8533;48.426;10.868;2023-07-16T02:20:00;5.70;;;3.93;;
16832;SDS011;8533;48.426;10.868;2023-07-16T02:22:25;4.47;;;3.20;;
16832;SDS011;8533;48.426;10.868;2023-07-16T02:24:51;3.83;;;3.10;;
16832;SDS011;8533;48.426;10.868;2023-07-16T02:27:16;6.87;;;3.43;;
16832;SDS011;8533;48.426;10.868;2023-07-16T02:29:41;3.40;;;3.00;;
16832;SDS011;8533;48.426;10.868;2023-07-16T02:32:06;9.30;;;3.50;;
16832;SDS011;8533;48.426;10.868;2023-07-16T02:34:32;3.03;;;2.73;;
16832;SDS011;8533;48.426;10.868;2023-07-16T02:36:57;5.00;;;3.40;;
16832;SDS011;8533;48.426;10.868;2023-07-16T02:39:23;5.97;;;2.90;;
16832;SDS011;8533;48.426;10.868;2023-07-16T02:41:49;4.87;;;3.13;;
16832;SDS011;8533;48.426;10.868;2023-07-16T02:44:14;6.00;;;3.20;;
16832;SDS011;8533;48.426;10.868;2023-07-16T02:46:39;4.93;;;3.07;;
16832;SDS011;8533;48.426;10.868;2023-07-16T02:49:06;4.93;;;3.00;;
16832;SDS011;8533;48.426;10.868;2023-07-16T02:51:32;5.17;;;3.27;;
16832;SDS011;8533;48.426;10.868;2023-07-16T02:53:57;4.30;;;3.13;;
16832;SDS011;8533;48.426;10.868;2023-07-16T02:56:22;6.13;;;3.20;;
16832;SDS011;8533;48.426;10.868;2023-07-16T02:58:48;3.70;;;3.23;;
16832;SDS011;8533;48.426;10.868;2023-07-16T03:01:13;6.00;;;3.73;;
16832;SDS011;8533;48.426;10.868;2023-07-16T03:03:38;4.90;;;3.10;;
16832;SDS011;8533;48.426;10.868;2023-07-16T03:06:04;7.00;;;3.40;;
16832;SDS011;8533;48.426;10.868;2023-07-16T03:08:29;5.03;;;3.20;;
16832;SDS011;8533;48.426;10.868;2023-07-16T03:10:56;4.53;;;3.10;;
16832;SDS011;8533;48.426;10.868;2023-07-16T03:13:22;5.17;;;3.43;;
16832;SDS011;8533;48.426;10.868;2023-07-16T03:15:47;4.43;;;2.80;;
16832;SDS011;8533;48.426;10.868;2023-07-16T03:18:13;8.53;;;3.60;;
16832;SDS011;8533;48.426;10.868;2023-07-16T03:20:38;5.33;;;3.27;;
16832;SDS011;8533;48.426;10.868;2023-07-16T03:23:03;5.17;;;3.00;;
16832;SDS011;8533;48.426;10.868;2023-07-16T03:25:29;3.30;;;3.00;;
16832;SDS011;8533;48.426;10.868;2023-07-16T03:27:54;8.37;;;2.70;;
16832;SDS011;8533;48.426;10.868;2023-07-16T03:30:19;5.57;;;3.00;;
16832;SDS011;8533;48.426;10.868;2023-07-16T03:32:45;5.63;;;2.97;;
16832;SDS011;8533;48.426;10.868;2023-07-16T03:35:10;3.80;;;3.00;;
16832;SDS011;8533;48.426;10.868;2023-07-16T03:37:35;4.90;;;2.77;;
16832;SDS011;8533;48.426;10.868;2023-07-16T03:40:12;3.07;;;2.67;;
16832;SDS011;8533;48.426;10.868;2023-07-16T03:42:39;3.87;;;2.40;;
16832;SDS011;8533;48.426;10.868;2023-07-16T03:45:04;3.30;;;2.33;;
16832;SDS011;8533;48.426;10.868;2023-07-16T03:47:30;3.80;;;2.80;;
16832;SDS011;8533;48.426;10.868;2023-07-16T03:49:55;4.93;;;2.90;;
16832;SDS011;8533;48.426;10.868;2023-07-16T03:52:21;3.97;;;3.20;;
16832;SDS011;8533;48.426;10.868;2023-07-16T03:54:46;6.33;;;2.70;;
16832;SDS011;8533;48.426;10.868;2023-07-16T03:57:11;5.27;;;2.70;;
16832;SDS011;8533;48.426;10.868;2023-07-16T03:59:36;7.00;;;3.50;;
16832;SDS011;8533;48.426;10.868;2023-07-16T04:02:02;8.00;;;3.20;;
16832;SDS011;8533;48.426;10.868;2023-07-16T04:04:27;3.17;;;2.47;;
16832;SDS011;8533;48.426;10.868;2023-07-16T04:06:52;5.17;;;3.23;;
16832;SDS011;8533;48.426;10.868;2023-07-16T04:09:18;5.67;;;3.07;;
16832;SDS011;8533;48.426;10.868;2023-07-16T04:11:43;5.53;;;2.97;;
16832;SDS011;8533;48.426;10.868;2023-07-16T04:14:08;5.50;;;3.57;;
16832;SDS011;8533;48.426;10.868;2023-07-16T04:16:33;3.37;;;3.07;;
16832;SDS011;8533;48.426;10.868;2023-07-16T04:18:59;5.40;;;3.27;;
16832;SDS011;8533;48.426;10.868;2023-07-16T04:21:24;3.10;;;2.70;;
16832;SDS011;8533;48.426;10.868;2023-07-16T04:23:49;3.47;;;3.00;;
16832;SDS011;8533;48.426;10.868;2023-07-16T04:26:15;4.90;;;3.23;;
16832;SDS011;8533;48.426;10.868;2023-07-16T04:28:40;3.90;;;2.93;;
16832;SDS011;8533;48.426;10.868;2023-07-16T04:31:05;5.37;;;3.33;;
16832;SDS011;8533;48.426;10.868;2023-07-16T04:33:31;5.00;;;3.73;;
16832;SDS011;8533;48.426;10.868;2023-07-16T04:35:56;4.30;;;3.20;;
16832;SDS011;8533;48.426;10.868;2023-07-16T04:38:21;4.50;;;3.30;;
16832;SDS011;8533;48.426;10.868;2023-07-16T04:40:46;6.33;;;3.30;;
16832;SDS011;8533;48.426;10.868;2023-07-16T04:43:12;4.00;;;3.23;;
16832;SDS011;8533;48.426;10.868;2023-07-16T04:45:37;4.57;;;3.23;;
16832;SDS011;8533;48.426;10.868;2023-07-16T04:48:04;5.50;;;3.50;;
16832;SDS011;8533;48.426;10.868;2023-07-16T04:50:30;5.20;;;3.60;;
16832;SDS011;8533;48.426;10.868;2023-07-16T04:52:55;4.00;;;3.30;;
16832;SDS011;8533;48.426;10.868;2023-07-16T04:55:20;6.17;;;3.80;;
16832;SDS011;8533;48.426;10.868;2023-07-16T04:57:45;6.83;;;3.70;;
16832;SDS011;8533;48.426;10.868;2023-07-16T05:00:11;4.87;;;3.67;;
16832;SDS011;8533;48.426;10.868;2023-07-16T05:02:36;4.57;;;3.60;;
16832;SDS011;8533;48.426;10.868;2023-07-16T05:05:02;4.97;;;3.97;;
16832;SDS011;8533;48.426;10.868;2023-07-16T05:07:27;6.00;;;3.87;;
16832;SDS011;8533;48.426;10.868;2023-07-16T05:09:52;6.40;;;4.00;;
16832;SDS011;8533;48.426;10.868;2023-07-16T05:12:18;5.10;;;3.97;;
16832;SDS011;8533;48.426;10.868;2023-07-16T05:14:44;8.83;;;3.90;;
16832;SDS011;8533;48.426;10.868;2023-07-16T05:17:11;5.97;;;4.10;;
16832;SDS011;8533;48.426;10.868;2023-07-16T05:19:36;7.67;;;3.93;;
16832;SDS011;8533;48.426;10.868;2023-07-16T05:22:02;6.23;;;3.50;;
16832;SDS011;8533;48.426;10.868;2023-07-16T05:24:27;4.70;;;3.50;;
16832;SDS011;8533;48.426;10.868;2023-07-16T05:26:52;5.00;;;3.57;;
16832;SDS011;8533;48.426;10.868;2023-07-16T05:29:19;5.13;;;3.60;;
16832;SDS011;8533;48.426;10.868;2023-07-16T05:31:44;6.77;;;3.60;;
16832;SDS011;8533;48.426;10.868;2023-07-16T05:34:11;4.47;;;2.93;;
16832;SDS011;8533;48.426;10.868;2023-07-16T05:36:37;4.47;;;2.93;;
16832;SDS011;8533;48.426;10.868;2023-07-16T05:39:02;5.30;;;2.67;;
16832;SDS011;8533;48.426;10.868;2023-07-16T05:41:27;4.50;;;2.80;;
16832;SDS011;8533;48.426;10.868;2023-07-16T05:43:52;3.87;;;3.23;;
16832;SDS011;8533;48.426;10.868;2023-07-16T05:46:18;3.70;;;2.80;;
16832;SDS011;8533;48.426;10.868;2023-07-16T05:48:43;2.80;;;2.60;;
16832;SDS011;8533;48.426;10.868;2023-07-16T05:51:08;4.00;;;2.80;;
16832;SDS011;8533;48.426;10.868;2023-07-16T05:53:34;4.93;;;2.70;;
16832;SDS011;8533;48.426;10.868;2023-07-16T05:55:59;3.67;;;3.00;;
16832;SDS011;8533;48.426;10.868;2023-07-16T05:58:24;3.83;;;2.87;;
16832;SDS011;8533;48.426;10.868;2023-07-16T06:00:50;3.97;;;2.67;;
16832;SDS011;8533;48.426;10.868;2023-07-16T06:03:15;4.13;;;2.47;;
16832;SDS011;8533;48.426;10.868;2023-07-16T06:05:42;2.67;;;2.33;;
16832;SDS011;8533;48.426;10.868;2023-07-16T06:08:07;3.13;;;2.80;;
16832;SDS011;8533;48.426;10.868;2023-07-16T06:10:36;2.50;;;2.30;;
16832;SDS011;8533;48.426;10.868;2023-07-16T06:13:01;2.73;;;2.40;;
16832;SDS011;8533;48.426;10.868;2023-07-16T06:15:27;2.30;;;2.10;;
16832;SDS011;8533;48.426;10.868;2023-07-16T06:17:52;3.23;;;2.17;;
16832;SDS011;8533;48.426;10.868;2023-07-16T06:20:17;2.93;;;2.30;;
16832;SDS011;8533;48.426;10.868;2023-07-16T06:22:42;5.17;;;2.23;;
16832;SDS011;8533;48.426;10.868;2023-07-16T06:25:08;5.23;;;2.20;;
16832;SDS011;8533;48.426;10.868;2023-07-16T06:27:35;5.97;;;2.43;;
16832;SDS011;8533;48.426;10.868;2023-07-16T06:30:01;3.13;;;2.30;;
16832;SDS011;8533;48.426;10.868;2023-07-16T06:32:26;4.10;;;2.40;;
16832;SDS011;8533;48.426;10.868;2023-07-16T06:34:51;3.87;;;2.43;;
16832;SDS011;8533;48.426;10.868;2023-07-16T06:37:17;5.60;;;2.77;;
16832;SDS011;8533;48.426;10.868;2023-07-16T06:39:42;4.03;;;2.50;;
16832;SDS011;8533;48.426;10.868;2023-07-16T06:42:07;7.07;;;3.03;;
16832;SDS011;8533;48.426;10.868;2023-07-16T06:44:33;5.77;;;2.90;;
16832;SDS011;8533;48.426;10.868;2023-07-16T06:46:58;8.80;;;2.73;;
16832;SDS011;8533;48.426;10.868;2023-07-16T06:49:23;4.17;;;2.30;;
16832;SDS011;8533;48.426;10.868;2023-07-16T06:51:49;2.30;;;2.10;;
16832;SDS011;8533;48.426;10.868;2023-07-16T06:54:14;3.30;;;2.07;;
16832;SDS011;8533;48.426;10.868;2023-07-16T06:56:40;3.07;;;2.27;;
16832;SDS011;8533;48.426;10.868;2023-07-16T06:59:05;3.43;;;2.43;;
16832;SDS011;8533;48.426;10.868;2023-07-16T07:01:30;4.43;;;2.33;;
16832;SDS011;8533;48.426;10.868;2023-07-16T07:03:56;2.77;;;2.30;;
16832;SDS011;8533;48.426;10.868;2023-07-16T07:06:21;6.03;;;2.40;;
16832;SDS011;8533;48.426;10.868;2023-07-16T07:08:47;4.50;;;2.80;;
16832;SDS011;8533;48.426;10.868;2023-07-16T07:11:12;3.57;;;2.80;;
16832;SDS011;8533;48.426;10.868;2023-07-16T07:13:38;3.57;;;2.57;;
16832;SDS011;8533;48.426;10.868;2023-07-16T07:16:03;9.20;;;2.50;;
16832;SDS011;8533;48.426;10.868;2023-07-16T07:18:28;4.90;;;2.60;;
16832;SDS011;8533;48.426;10.868;2023-07-16T07:20:54;4.80;;;2.80;;
16832;SDS011;8533;48.426;10.868;2023-07-16T07:23:19;3.03;;;2.60;;
16832;SDS011;8533;48.426;10.868;2023-07-16T07:25:48;2.73;;;2.30;;
16832;SDS011;8533;48.426;10.868;2023-07-16T07:28:17;4.70;;;2.30;;
16832;SDS011;8533;48.426;10.868;2023-07-16T07:30:43;4.43;;;2.30;;
16832;SDS011;8533;48.426;10.868;2023-07-16T07:33:09;4.47;;;2.57;;
16832;SDS011;8533;48.426;10.868;2023-07-16T07:35:35;3.27;;;2.10;;
16832;SDS011;8533;48.426;10.868;2023-07-16T07:38:00;2.70;;;2.00;;
16832;SDS011;8533;48.426;10.868;2023-07-16T07:40:26;3.07;;;2.30;;
16832;SDS011;8533;48.426;10.868;2023-07-16T07:42:51;3.83;;;2.40;;
16832;SDS011;8533;48.426;10.868;2023-07-16T07:45:17;2.90;;;2.57;;
16832;SDS011;8533;48.426;10.868;2023-07-16T07:47:42;4.53;;;2.57;;
16832;SDS011;8533;48.426;10.868;2023-07-16T07:50:08;3.87;;;2.43;;
16832;SDS011;8533;48.426;10.868;2023-07-16T07:52:33;2.67;;;2.30;;
16832;SDS011;8533;48.426;10.868;2023-07-16T07:54:59;2.87;;;2.53;;
16832;SDS011;8533;48.426;10.868;2023-07-16T07:57:24;3.63;;;2.50;;
16832;SDS011;8533;48.426;10.868;2023-07-16T07:59:49;3.20;;;2.30;;
16832;SDS011;8533;48.426;10.868;2023-07-16T08:02:17;3.03;;;2.40;;
16832;SDS011;8533;48.426;10.868;2023-07-16T08:04:43;3.00;;;2.17;;
16832;SDS011;8533;48.426;10.868;2023-07-16T08:07:09;3.13;;;2.30;;
16832;SDS011;8533;48.426;10.868;2023-07-16T08:09:34;3.87;;;2.20;;
16832;SDS011;8533;48.426;10.868;2023-07-16T08:11:59;4.27;;;2.67;;
16832;SDS011;8533;48.426;10.868;2023-07-16T08:14:25;2.90;;;2.30;;
16832;SDS011;8533;48.426;10.868;2023-07-16T08:16:50;3.13;;;1.93;;
16832;SDS011;8533;48.426;10.868;2023-07-16T08:19:15;2.97;;;2.27;;
16832;SDS011;8533;48.426;10.868;2023-07-16T08:21:40;3.27;;;2.20;;
16832;SDS011;8533;48.426;10.868;2023-07-16T08:24:06;3.10;;;1.90;;
16832;SDS011;8533;48.426;10.868;2023-07-16T08:26:32;3.23;;;1.90;;
16832;SDS011;8533;48.426;10.868;2023-07-16T08:28:57;2.93;;;2.10;;
16832;SDS011;8533;48.426;10.868;2023-07-16T08:31:22;3.03;;;2.00;;
16832;SDS011;8533;48.426;10.868;2023-07-16T08:33:48;2.53;;;1.70;;
16832;SDS011;8533;48.426;10.868;2023-07-16T08:36:13;2.67;;;2.00;;
16832;SDS011;8533;48.426;10.868;2023-07-16T08:38:38;2.43;;;2.13;;
16832;SDS011;8533;48.426;10.868;2023-07-16T08:41:03;2.90;;;1.90;;
16832;SDS011;8533;48.426;10.868;2023-07-16T08:43:29;2.20;;;1.80;;
16832;SDS011;8533;48.426;10.868;2023-07-16T08:45:55;1.90;;;1.80;;
16832;SDS011;8533;48.426;10.868;2023-07-16T08:48:21;4.73;;;2.10;;
16832;SDS011;8533;48.426;10.868;2023-07-16T08:50:48;3.37;;;2.33;;
16832;SDS011;8533;48.426;10.868;2023-07-16T08:53:17;2.97;;;2.03;;
16832;SDS011;8533;48.426;10.868;2023-07-16T08:55:44;3.27;;;2.30;;
16832;SDS011;8533;48.426;10.868;2023-07-16T08:58:11;2.73;;;2.17;;
16832;SDS011;8533;48.426;10.868;2023-07-16T09:00:39;3.50;;;2.20;;
16832;SDS011;8533;48.426;10.868;2023-07-16T09:03:06;3.97;;;2.00;;
16832;SDS011;8533;48.426;10.868;2023-07-16T09:05:31;2.53;;;1.97;;
16832;SDS011;8533;48.426;10.868;2023-07-16T09:07:59;3.13;;;2.00;;
16832;SDS011;8533;48.426;10.868;2023-07-16T09:10:24;2.30;;;1.97;;
16832;SDS011;8533;48.426;10.868;2023-07-16T09:12:50;2.73;;;2.20;;
16832;SDS011;8533;48.426;10.868;2023-07-16T09:15:18;2.50;;;1.90;;
16832;SDS011;8533;48.426;10.868;2023-07-16T09:17:47;1.70;;;1.60;;
16832;SDS011;8533;48.426;10.868;2023-07-16T09:20:14;2.33;;;2.10;;
16832;SDS011;8533;48.426;10.868;2023-07-16T09:22:40;2.53;;;1.83;;
16832;SDS011;8533;48.426;10.868;2023-07-16T09:25:06;3.80;;;2.27;;
16832;SDS011;8533;48.426;10.868;2023-07-16T09:27:31;2.30;;;2.00;;
16832;SDS011;8533;48.426;10.868;2023-07-16T09:29:57;5.07;;;2.27;;
16832;SDS011;8533;48.426;10.868;2023-07-16T09:32:36;1.90;;;1.80;;
16832;SDS011;8533;48.426;10.868;2023-07-16T09:37:35;3.43;;;2.07;;
16832;SDS011;8533;48.426;10.868;2023-07-16T09:40:02;2.10;;;1.90;;
16832;SDS011;8533;48.426;10.868;2023-07-16T09:42:28;2.37;;;1.73;;
16832;SDS011;8533;48.426;10.868;2023-07-16T09:44:55;2.30;;;1.87;;
16832;SDS011;8533;48.426;10.868;2023-07-16T09:47:22;2.77;;;2.10;;
16832;SDS011;8533;48.426;10.868;2023-07-16T09:49:47;3.53;;;2.10;;
16832;SDS011;8533;48.426;10.868;2023-07-16T09:52:12;3.27;;;2.00;;
16832;SDS011;8533;48.426;10.868;2023-07-16T09:54:39;1.87;;;1.70;;
16832;SDS011;8533;48.426;10.868;2023-07-16T09:57:05;2.27;;;1.73;;
16832;SDS011;8533;48.426;10.868;2023-07-16T09:59:32;2.23;;;2.00;;
16832;SDS011;8533;48.426;10.868;2023-07-16T10:01:59;2.20;;;2.00;;
16832;SDS011;8533;48.426;10.868;2023-07-16T10:04:24;1.90;;;1.60;;
16832;SDS011;8533;48.426;10.868;2023-07-16T10:06:53;2.57;;;1.90;;
16832;SDS011;8533;48.426;10.868;2023-07-16T10:09:31;3.60;;;2.00;;
16832;SDS011;8533;48.426;10.868;2023-07-16T10:12:06;2.53;;;1.80;;
16832;SDS011;8533;48.426;10.868;2023-07-16T10:14:38;2.27;;;1.87;;
16832;SDS011;8533;48.426;10.868;2023-07-16T10:17:05;2.00;;;1.80;;
16832;SDS011;8533;48.426;10.868;2023-07-16T10:19:30;1.80;;;1.70;;
16832;SDS011;8533;48.426;10.868;2023-07-16T10:21:56;2.17;;;1.70;;
16832;SDS011;8533;48.426;10.868;2023-07-16T10:24:21;2.00;;;1.80;;
16832;SDS011;8533;48.426;10.868;2023-07-16T10:26:52;2.00;;;1.80;;
16832;SDS011;8533;48.426;10.868;2023-07-16T10:29:17;2.73;;;1.83;;
16832;SDS011;8533;48.426;10.868;2023-07-16T10:31:42;1.70;;;1.50;;
16832;SDS011;8533;48.426;10.868;2023-07-16T10:34:08;1.63;;;1.53;;
16832;SDS011;8533;48.426;10.868;2023-07-16T10:36:38;2.70;;;1.80;;
16832;SDS011;8533;48.426;10.868;2023-07-16T10:39:03;1.90;;;1.60;;
16832;SDS011;8533;48.426;10.868;2023-07-16T10:41:30;2.20;;;1.80;;
16832;SDS011;8533;48.426;10.868;2023-07-16T10:43:56;2.20;;;1.90;;
16832;SDS011;8533;48.426;10.868;2023-07-16T10:46:22;1.80;;;1.70;;
16832;SDS011;8533;48.426;10.868;2023-07-16T10:48:48;2.90;;;1.73;;
16832;SDS011;8533;48.426;10.868;2023-07-16T10:51:17;2.17;;;1.80;;
16832;SDS011;8533;48.426;10.868;2023-07-16T10:53:42;2.00;;;1.90;;
16832;SDS011;8533;48.426;10.868;2023-07-16T10:56:09;1.60;;;1.50;;
16832;SDS011;8533;48.426;10.868;2023-07-16T10:58:36;2.13;;;1.93;;
16832;SDS011;8533;48.426;10.868;2023-07-16T11:01:02;2.50;;;1.90;;
16832;SDS011;8533;48.426;10.868;2023-07-16T11:03:27;2.10;;;1.90;;
16832;SDS011;8533;48.426;10.868;2023-07-16T11:05:53;2.27;;;2.07;;
16832;SDS011;8533;48.426;10.868;2023-07-16T11:08:24;2.97;;;2.10;;
16832;SDS011;8533;48.426;10.868;2023-07-16T11:10:54;2.53;;;1.83;;
16832;SDS011;8533;48.426;10.868;2023-07-16T11:13:26;3.13;;;1.80;;
16832;SDS011;8533;48.426;10.868;2023-07-16T11:15:56;2.10;;;1.90;;
16832;SDS011;8533;48.426;10.868;2023-07-16T11:18:22;2.53;;;2.10;;
16832;SDS011;8533;48.426;10.868;2023-07-16T11:20:52;2.33;;;2.13;;
16832;SDS011;8533;48.426;10.868;2023-07-16T11:23:18;2.40;;;1.80;;
16832;SDS011;8533;48.426;10.868;2023-07-16T11:25:47;2.47;;;2.03;;
16832;SDS011;8533;48.426;10.868;2023-07-16T11:28:13;3.90;;;2.63;;
16832;SDS011;8533;48.426;10.868;2023-07-16T11:30:39;2.00;;;1.90;;
16832;SDS011;8533;48.426;10.868;2023-07-16T11:33:09;5.87;;;2.13;;
16832;SDS011;8533;48.426;10.868;2023-07-16T11:35:35;2.23;;;1.80;;
16832;SDS011;8533;48.426;10.868;2023-07-16T11:38:01;2.00;;;1.87;;
16832;SDS011;8533;48.426;10.868;2023-07-16T11:40:27;2.27;;;1.90;;
16832;SDS011;8533;48.426;10.868;2023-07-16T11:42:53;2.30;;;1.60;;
16832;SDS011;8533;48.426;10.868;2023-07-16T11:45:22;1.63;;;1.53;;
16832;SDS011;8533;48.426;10.868;2023-07-16T11:47:51;2.07;;;1.70;;
16832;SDS011;8533;48.426;10.868;2023-07-16T11:50:17;1.87;;;1.77;;
16832;SDS011;8533;48.426;10.868;2023-07-16T11:52:42;2.83;;;1.90;;
16832;SDS011;8533;48.426;10.868;2023-07-16T11:55:07;2.33;;;2.00;;
16832;SDS011;8533;48.426;10.868;2023-07-16T11:57:33;3.37;;;1.80;;
16832;SDS011;8533;48.426;10.868;2023-07-16T11:59:59;2.57;;;1.70;;
16832;SDS011;8533;48.426;10.868;2023-07-16T12:02:25;2.03;;;1.80;;
16832;SDS011;8533;48.426;10.868;2023-07-16T12:04:52;1.83;;;1.70;;
16832;SDS011;8533;48.426;10.868;2023-07-16T12:07:30;3.13;;;2.10;;
16832;SDS011;8533;48.426;10.868;2023-07-16T12:09:57;2.30;;;1.70;;
16832;SDS011;8533;48.426;10.868;2023-07-16T12:12:23;2.37;;;1.87;;
16832;SDS011;8533;48.426;10.868;2023-07-16T12:14:48;3.57;;;1.80;;
16832;SDS011;8533;48.426;10.868;2023-07-16T12:17:13;2.17;;;1.80;;
16832;SDS011;8533;48.426;10.868;2023-07-16T12:19:39;2.77;;;1.90;;
16832;SDS011;8533;48.426;10.868;2023-07-16T12:22:04;1.80;;;1.70;;
16832;SDS011;8533;48.426;10.868;2023-07-16T12:24:29;2.00;;;1.80;;
16832;SDS011;8533;48.426;10.868;2023-07-16T12:26:55;3.50;;;1.90;;
16832;SDS011;8533;48.426;10.868;2023-07-16T12:29:20;2.67;;;1.80;;
16832;SDS011;8533;48.426;10.868;2023-07-16T12:31:46;2.07;;;1.63;;
16832;SDS011;8533;48.426;10.868;2023-07-16T12:34:11;2.40;;;1.93;;
16832;SDS011;8533;48.426;10.868;2023-07-16T12:36:36;1.87;;;1.67;;
16832;SDS011;8533;48.426;10.868;2023-07-16T12:39:01;2.20;;;2.00;;
16832;SDS011;8533;48.426;10.868;2023-07-16T12:41:30;2.10;;;1.90;;
16832;SDS011;8533;48.426;10.868;2023-07-16T12:43:55;2.50;;;2.03;;
16832;SDS011;8533;48.426;10.868;2023-07-16T12:46:20;1.70;;;1.60;;
16832;SDS011;8533;48.426;10.868;2023-07-16T12:48:45;3.30;;;2.10;;
16832;SDS011;8533;48.426;10.868;2023-07-16T12:51:11;2.53;;;1.60;;
16832;SDS011;8533;48.426;10.868;2023-07-16T12:53:36;2.07;;;1.87;;
16832;SDS011;8533;48.426;10.868;2023-07-16T12:56:01;1.70;;;1.60;;
16832;SDS011;8533;48.426;10.868;2023-07-16T12:58:27;1.83;;;1.73;;
16832;SDS011;8533;48.426;10.868;2023-07-16T13:00:53;1.70;;;1.60;;
16832;SDS011;8533;48.426;10.868;2023-07-16T13:03:18;1.80;;;1.60;;
16832;SDS011;8533;48.426;10.868;2023-07-16T13:05:44;2.00;;;1.77;;
16832;SDS011;8533;48.426;10.868;2023-07-16T13:08:10;2.13;;;1.63;;
16832;SDS011;8533;48.426;10.868;2023-07-16T13:10:35;1.90;;;1.70;;
16832;SDS011;8533;48.426;10.868;2023-07-16T13:13:01;2.37;;;1.90;;
16832;SDS011;8533;48.426;10.868;2023-07-16T13:15:28;2.00;;;1.90;;
16832;SDS011;8533;48.426;10.868;2023-07-16T13:17:54;2.10;;;1.90;;
16832;SDS011;8533;48.426;10.868;2023-07-16T13:20:20;3.07;;;1.80;;
16832;SDS011;8533;48.426;10.868;2023-07-16T13:22:46;1.80;;;1.70;;
16832;SDS011;8533;48.426;10.868;2023-07-16T13:25:11;2.17;;;1.80;;
16832;SDS011;8533;48.426;10.868;2023-07-16T13:27:37;2.73;;;1.97;;
16832;SDS011;8533;48.426;10.868;2023-07-16T13:30:02;2.23;;;1.90;;
16832;SDS011;8533;48.426;10.868;2023-07-16T13:32:28;2.00;;;1.80;;
16832;SDS011;8533;48.426;10.868;2023-07-16T13:35:05;2.17;;;1.97;;
16832;SDS011;8533;48.426;10.868;2023-07-16T13:37:31;1.97;;;1.87;;
16832;SDS011;8533;48.426;10.868;2023-07-16T13:39:57;1.70;;;1.60;;
16832;SDS011;8533;48.426;10.868;2023-07-16T13:42:25;2.20;;;2.00;;
16832;SDS011;8533;48.426;10.868;2023-07-16T13:44:53;1.80;;;1.70;;
16832;SDS011;8533;48.426;10.868;2023-07-16T13:47:21;2.83;;;1.80;;
16832;SDS011;8533;48.426;10.868;2023-07-16T13:49:47;2.10;;;1.90;;
16832;SDS011;8533;48.426;10.868;2023-07-16T13:52:12;2.50;;;1.70;;
16832;SDS011;8533;48.426;10.868;2023-07-16T13:54:37;1.80;;;1.70;;
16832;SDS011;8533;48.426;10.868;2023-07-16T13:57:03;4.30;;;2.10;;
16832;SDS011;8533;48.426;10.868;2023-07-16T13:59:28;1.93;;;1.57;;
16832;SDS011;8533;48.426;10.868;2023-07-16T14:02:00;2.07;;;1.87;;
16832;SDS011;8533;48.426;10.868;2023-07-16T14:04:27;1.90;;;1.80;;
16832;SDS011;8533;48.426;10.868;2023-07-16T14:06:53;2.73;;;1.87;;
16832;SDS011;8533;48.426;10.868;2023-07-16T14:09:18;1.80;;;1.70;;
16832;SDS011;8533;48.426;10.868;2023-07-16T14:11:44;2.87;;;2.10;;
16832;SDS011;8533;48.426;10.868;2023-07-16T14:14:12;2.33;;;1.93;;
16832;SDS011;8533;48.426;10.868;2023-07-16T14:16:38;2.00;;;1.80;;
16832;SDS011;8533;48.426;10.868;2023-07-16T14:19:03;1.70;;;1.60;;
16832;SDS011;8533;48.426;10.868;2023-07-16T14:21:29;1.97;;;1.80;;
16832;SDS011;8533;48.426;10.868;2023-07-16T14:23:55;1.50;;;1.40;;
16832;SDS011;8533;48.426;10.868;2023-07-16T14:26:20;1.73;;;1.63;;
16832;SDS011;8533;48.426;10.868;2023-07-16T14:28:45;1.97;;;1.73;;
16832;SDS011;8533;48.426;10.868;2023-07-16T14:31:11;1.67;;;1.47;;
16832;SDS011;8533;48.426;10.868;2023-07-16T14:33:37;1.63;;;1.53;;
16832;SDS011;8533;48.426;10.868;2023-07-16T14:36:03;2.93;;;1.70;;
16832;SDS011;8533;48.426;10.868;2023-07-16T14:38:28;2.10;;;1.70;;
16832;SDS011;8533;48.426;10.868;2023-07-16T14:40:54;3.20;;;2.37;;
16832;SDS011;8533;48.426;10.868;2023-07-16T14:43:19;1.77;;;1.60;;
16832;SDS011;8533;48.426;10.868;2023-07-16T14:45:44;2.57;;;2.20;;